Time;durP1;ratioP1;P1;durP2;ratioP2;P2;SDS_P1;SDS_P2;PMS_P1;PMS_P2;Temp;Humidity;BMP_temperature;BMP_pressure;BME280_temperature;BME280_humidity;BME280_pressure;Samples;Min_cycle;Max_cycle;Signal;HPM_P1;HPM_P2
2023/03/15 00:00:18;;;;;;;132.98;70.38;;;;;;;20.23;70.50;98411.75;5102640;28;20051;-62
2023/03/15 00:03:06;;;;;;;125.75;70.22;;;;;;;20.27;70.45;98404.81;5101247;28;20071;-63
2023/03/15 00:06:01;;;;;;;117.22;68.78;;;;;;;20.26;70.21;98411.25;5098818;28;20047;-62
2023/03/15 00:08:37;;;;;;;116.53;66.03;;;;;;;20.21;70.26;98406.66;5101179;28;20051;-61
2023/03/15 00:11:29;;;;;;;135.43;71.18;;;;;;;20.13;70.76;98410.69;5079799;28;20727;-62
2023/03/15 00:14:11;;;;;;;131.55;68.57;;;;;;;20.11;70.97;98414.69;5079140;28;20481;-61
2023/03/15 00:17:06;;;;;;;126.85;66.75;;;;;;;20.13;71.21;98420.63;5082792;28;20059;-62
2023/03/15 00:19:42;;;;;;;125.13;69.25;;;;;;;20.20;70.92;98423.88;5076050;28;20497;-62
2023/03/15 00:22:37;;;;;;;120.28;69.60;;;;;;;20.21;70.41;98427.38;5080652;28;20132;-62
2023/03/15 00:25:14;;;;;;;119.88;70.47;;;;;;;20.15;70.28;98430.03;5076251;28;20353;-62
2023/03/15 00:28:10;;;;;;;120.95;68.85;;;;;;;20.03;70.68;98431.31;5081821;28;20043;-63
2023/03/15 00:30:46;;;;;;;116.03;66.50;;;;;;;20.00;71.19;98434.53;5102215;28;20169;-62
2023/03/15 00:33:43;;;;;;;128.07;68.18;;;;;;;19.93;71.67;98436.59;5096690;28;20059;-63
2023/03/15 00:36:22;;;;;;;126.00;69.38;;;;;;;19.94;71.69;98433.66;5095763;28;20051;-64
2023/03/15 00:39:18;;;;;;;137.43;68.93;;;;;;;19.93;72.10;98439.31;5083019;28;20059;-62
2023/03/15 00:41:55;;;;;;;128.80;70.57;;;;;;;19.98;71.95;98437.47;5082719;28;20127;-63
2023/03/15 00:44:50;;;;;;;119.20;65.68;;;;;;;20.06;71.84;98436.97;5095893;28;20052;-62
2023/03/15 00:47:39;;;;;;;113.53;65.38;;;;;;;20.05;71.76;98442.59;5080367;28;20058;-62
2023/03/15 00:50:29;;;;;;;111.47;64.35;;;;;;;19.99;71.60;98446.34;5082844;28;20300;-63
2023/03/15 00:53:10;;;;;;;109.10;64.60;;;;;;;20.00;71.20;98445.28;5077858;28;20043;-62
2023/03/15 00:56:00;;;;;;;108.00;62.70;;;;;;;19.93;71.56;98448.19;5085360;28;20047;-62
2023/03/15 00:58:42;;;;;;;117.53;64.65;;;;;;;19.90;72.12;98456.75;5089651;28;20051;-62
2023/03/15 01:01:35;;;;;;;123.20;66.63;;;;;;;19.88;72.02;98452.69;5097980;28;20810;-62
2023/03/15 01:04:16;;;;;;;126.28;67.43;;;;;;;19.84;72.47;98457.78;5091103;28;20040;-62
2023/03/15 01:07:06;;;;;;;117.57;67.30;;;;;;;19.76;72.27;98457.47;5094459;28;20052;-62
2023/03/15 01:09:51;;;;;;;124.15;67.65;;;;;;;19.73;72.14;98462.28;5084480;28;20062;-62
2023/03/15 01:12:40;;;;;;;117.72;63.42;;;;;;;19.81;72.05;98460.19;5087761;28;20396;-62
2023/03/15 01:15:35;;;;;;;124.53;66.00;;;;;;;19.81;72.04;98468.25;5084481;28;20051;-64
2023/03/15 01:18:11;;;;;;;122.35;63.65;;;;;;;19.82;72.14;98470.69;5071133;28;20381;-62
2023/03/15 01:21:00;;;;;;;119.47;65.45;;;;;;;19.80;72.09;98475.50;5076731;28;20518;-63
2023/03/15 01:23:43;;;;;;;118.68;62.75;;;;;;;19.83;72.40;98482.22;5088854;28;20130;-62
2023/03/15 01:26:38;;;;;;;108.80;63.55;;;;;;;19.89;72.18;98483.91;5087360;28;20044;-62
2023/03/15 01:29:16;;;;;;;111.97;62.10;;;;;;;19.90;72.20;98486.34;5073128;28;20052;-60
2023/03/15 01:32:07;;;;;;;114.05;63.05;;;;;;;19.90;72.30;98491.72;5079230;28;20044;-60
2023/03/15 01:34:50;;;;;;;116.80;64.03;;;;;;;20.00;72.65;98494.44;5071713;28;20148;-61
2023/03/15 01:37:39;;;;;;;101.82;61.28;;;;;;;20.02;72.03;98495.00;5074119;28;20035;-62
2023/03/15 01:40:28;;;;;;;117.40;62.80;;;;;;;20.06;72.28;98495.31;5069418;28;20055;-62
2023/03/15 01:43:19;;;;;;;113.25;62.08;;;;;;;20.09;72.28;98500.97;5080646;28;20047;-62
2023/03/15 01:46:24;;;;;;;105.07;60.88;;;;;;;20.16;71.91;98506.13;5080804;28;20032;-62
2023/03/15 01:49:30;;;;;;;109.35;60.47;;;;;;;20.22;71.42;98504.28;5081908;28;20134;-62
2023/03/15 01:52:26;;;;;;;;;;;;;;;20.28;71.39;98506.75;5088714;28;20044;-62
2023/03/15 01:55:18;;;;;;;110.07;61.95;;;;;;;20.36;71.35;98508.97;5076883;28;19984;-62
2023/03/15 01:58:17;;;;;;;142.65;77.30;;;;;;;20.42;70.92;98513.31;5074113;28;20047;-62
2023/03/15 02:01:01;;;;;;;122.57;69.15;;;;;;;20.52;70.25;98521.47;5072309;28;20055;-61
2023/03/15 02:03:58;;;;;;;;;;;;;;;20.63;69.75;98528.50;5068442;28;20130;-63
2023/03/15 02:06:46;;;;;;;109.78;59.42;;;;;;;20.76;69.89;98531.78;5070611;28;19927;-61
2023/03/15 02:10:00;;;;;;;103.70;58.75;;;;;;;20.91;70.26;98534.56;5073645;28;20063;-61
2023/03/15 02:12:58;;;;;;;100.88;58.10;;;;;;;21.13;70.70;98537.91;5070294;28;20036;-62
2023/03/15 02:15:45;;;;;;;114.57;60.25;;;;;;;21.21;68.40;98547.34;5084498;28;20051;-63
2023/03/15 02:18:40;;;;;;;109.53;56.20;;;;;;;21.49;67.88;98547.69;5072183;28;20366;-61
2023/03/15 02:21:35;;;;;;;105.68;57.35;;;;;;;21.67;66.30;98556.34;5081749;28;20105;-62
2023/03/15 02:24:42;;;;;;;105.60;57.63;;;;;;;22.08;64.12;98562.63;5064992;28;20052;-62
2023/03/15 02:27:29;;;;;;;108.65;56.00;;;;;;;22.61;63.15;98562.00;5074365;28;20047;-62
2023/03/15 02:30:21;;;;;;;107.50;56.08;;;;;;;23.05;62.14;98569.47;5077908;28;20534;-62
2023/03/15 02:33:06;;;;;;;101.03;58.83;;;;;;;23.57;60.33;98568.94;5066778;28;20049;-62
2023/03/15 02:35:55;;;;;;;104.10;55.27;;;;;;;24.07;58.99;98567.78;5071603;28;20048;-62
2023/03/15 02:38:37;;;;;;;105.70;56.75;;;;;;;24.47;57.18;98575.53;5085736;28;20273;-63
2023/03/15 02:41:44;;;;;;;97.43;52.85;;;;;;;24.65;58.21;98575.94;5075335;28;20044;-62
2023/03/15 02:44:31;;;;;;;100.82;51.97;;;;;;;24.85;59.22;98581.13;5095259;28;20050;-62
2023/03/15 02:47:33;;;;;;;93.55;52.25;;;;;;;24.50;58.03;98587.72;5096575;27;20877;-63
2023/03/15 02:50:09;;;;;;;92.40;50.30;;;;;;;24.45;57.35;98588.59;5093512;28;20058;-63
2023/03/15 02:53:05;;;;;;;89.10;49.70;;;;;;;24.87;56.13;98589.81;5074829;28;20441;-62
2023/03/15 02:55:41;;;;;;;98.70;51.65;;;;;;;25.01;55.55;98596.13;5086241;28;20043;-62
2023/03/15 02:58:36;;;;;;;99.25;52.70;;;;;;;25.13;56.29;98601.97;5074394;28;20063;-63
2023/03/15 03:01:14;;;;;;;101.40;56.33;;;;;;;25.00;55.89;98606.16;5067938;28;20048;-63
2023/03/15 03:04:10;;;;;;;103.07;59.50;;;;;;;25.32;54.12;98610.94;5078754;28;20498;-64
2023/03/15 03:06:46;;;;;;;102.55;58.92;;;;;;;25.86;52.80;98620.56;5067591;28;20043;-63
2023/03/15 03:09:44;;;;;;;98.63;55.22;;;;;;;25.99;53.01;98619.81;5068830;28;20040;-63
2023/03/15 03:12:28;;;;;;;82.60;53.35;;;;;;;25.50;53.77;98618.31;5068666;28;20055;-63
2023/03/15 03:15:22;;;;;;;79.15;50.67;;;;;;;25.84;52.76;98630.91;5068669;28;20051;-64
2023/03/15 03:17:58;;;;;;;88.32;51.80;;;;;;;25.66;52.15;98629.81;5086837;28;20044;-63
2023/03/15 03:20:48;;;;;;;;;;;;;;;25.47;52.72;98629.75;5069435;28;20055;-65
2023/03/15 03:23:38;;;;;;;86.07;51.63;;;;;;;25.54;53.90;98632.13;5083451;28;19920;-63
2023/03/15 03:26:21;;;;;;;91.45;54.08;;;;;;;25.50;55.60;98636.47;5086224;28;20058;-62
2023/03/15 03:29:10;;;;;;;83.60;50.83;;;;;;;25.55;52.41;98628.31;5068666;28;20052;-62
2023/03/15 03:32:01;;;;;;;91.35;51.40;;;;;;;25.48;52.38;98633.25;5068083;28;20032;-62
2023/03/15 03:34:47;;;;;;;79.57;49.33;;;;;;;25.55;52.79;98643.78;5084725;28;20044;-62
2023/03/15 03:37:36;;;;;;;84.85;50.30;;;;;;;26.32;51.63;98643.22;5066428;28;20331;-62
2023/03/15 03:40:28;;;;;;;84.65;48.83;;;;;;;26.15;51.82;98642.94;5066873;28;20202;-63
2023/03/15 03:43:17;;;;;;;70.75;40.92;;;;;;;26.48;51.71;98646.47;5082909;28;20127;-63
2023/03/15 03:46:06;;;;;;;77.78;42.53;;;;;;;26.52;50.35;98647.50;5067545;28;20129;-63
2023/03/15 03:48:58;;;;;;;65.28;40.85;;;;;;;26.38;49.82;98651.28;5070611;28;20089;-63
2023/03/15 03:51:41;;;;;;;76.78;42.55;;;;;;;26.16;49.07;98649.13;5040123;28;20055;-63
2023/03/15 03:54:30;;;;;;;72.97;41.58;;;;;;;26.54;50.69;98650.75;5073750;28;20541;-63
2023/03/15 03:57:14;;;;;;;76.13;41.53;;;;;;;26.63;51.43;98659.00;5067856;28;20040;-65
2023/03/15 04:00:10;;;;;;;73.28;40.25;;;;;;;26.60;48.48;98659.63;5054760;28;20051;-63
2023/03/15 04:02:47;;;;;;;72.43;40.90;;;;;;;26.60;47.97;98663.13;5067759;28;20466;-63
2023/03/15 04:05:37;;;;;;;61.83;38.53;;;;;;;27.02;49.02;98655.88;5068266;28;20044;-64
2023/03/15 04:08:31;;;;;;;70.75;40.20;;;;;;;26.78;47.51;98659.53;5067112;28;20062;-63
2023/03/15 04:11:17;;;;;;;77.85;41.80;;;;;;;26.97;48.53;98661.41;5067715;28;20135;-64
2023/03/15 04:14:10;;;;;;;72.00;38.20;;;;;;;27.39;47.39;98660.34;5059761;28;20052;-65
2023/03/15 04:16:56;;;;;;;66.53;38.63;;;;;;;27.34;47.23;98665.88;5055791;28;20434;-65
2023/03/15 04:19:47;;;;;;;67.22;36.47;;;;;;;27.73;46.38;98659.91;5066294;28;20068;-64
2023/03/15 04:22:36;;;;;;;58.20;30.92;;;;;;;27.64;46.21;98663.38;5067379;28;20434;-65
2023/03/15 04:25:33;;;;;;;59.67;34.38;;;;;;;27.52;45.68;98663.09;5079776;28;20491;-65
2023/03/15 04:28:41;;;;;;;58.17;32.00;;;;;;;27.27;46.21;98664.34;5081949;28;20071;-64
2023/03/15 04:31:51;;;;;;;60.30;31.75;;;;;;;27.70;46.87;98659.41;5064241;28;20055;-66
2023/03/15 04:34:58;;;;;;;53.63;29.58;;;;;;;28.19;44.77;98667.91;5030294;28;20052;-64
2023/03/15 04:38:10;;;;;;;41.40;24.77;;;;;;;27.94;45.66;98666.53;5062032;28;20123;-64
2023/03/15 04:41:09;;;;;;;43.55;24.45;;;;;;;28.39;44.16;98670.94;5067973;28;20044;-65
2023/03/15 04:44:19;;;;;;;48.22;27.25;;;;;;;28.66;44.84;98669.19;5036941;28;20447;-64
2023/03/15 04:47:19;;;;;;;63.15;36.42;;;;;;;28.77;43.93;98665.91;5064316;28;20493;-64
2023/03/15 04:50:29;;;;;;;55.08;28.00;;;;;;;28.93;42.91;98671.78;5065410;28;20044;-63
2023/03/15 04:53:27;;;;;;;55.40;29.67;;;;;;;28.89;43.73;98671.63;5057595;28;20184;-64
2023/03/15 04:56:36;;;;;;;51.58;27.55;;;;;;;28.75;43.76;98668.16;5082531;28;20061;-63
2023/03/15 04:59:47;;;;;;;49.72;25.15;;;;;;;28.60;43.15;98665.78;5080624;28;20105;-64
2023/03/15 05:02:53;;;;;;;42.10;22.90;;;;;;;28.67;43.18;98670.81;5091288;28;20081;-64
2023/03/15 05:05:54;;;;;;;43.25;22.83;;;;;;;28.82;41.68;98673.97;5055655;28;20051;-63
2023/03/15 05:09:18;;;;;;;41.97;21.05;;;;;;;28.99;42.83;98667.78;5057134;28;20197;-64
2023/03/15 05:12:35;;;;;;;32.80;19.50;;;;;;;28.91;43.30;98671.28;4988264;28;20066;-64
2023/03/15 05:15:52;;;;;;;31.48;19.08;;;;;;;29.31;42.74;98674.88;5052859;28;20071;-63
2023/03/15 05:18:48;;;;;;;33.38;18.13;;;;;;;29.27;43.59;98666.50;5052701;28;20040;-64
2023/03/15 05:22:07;;;;;;;35.83;19.02;;;;;;;29.41;42.17;98672.66;5076333;28;20464;-64
2023/03/15 05:25:23;;;;;;;37.80;17.20;;;;;;;29.92;42.24;98663.00;5081606;28;20048;-65
2023/03/15 05:28:48;;;;;;;30.10;17.67;;;;;;;30.23;42.57;98666.38;5010875;28;20049;-65
2023/03/15 05:31:37;;;;;;;34.88;16.08;;;;;;;29.83;39.89;98662.16;5076392;28;20483;-63
2023/03/15 05:34:53;;;;;;;37.00;16.02;;;;;;;30.13;40.94;98655.81;5048912;28;20811;-62
2023/03/15 05:38:13;;;;;;;23.98;15.82;;;;;;;30.80;40.48;98660.72;5041415;28;20051;-62
2023/03/15 05:41:20;;;;;;;38.22;17.83;;;;;;;30.53;39.71;98661.91;5082835;28;20040;-65
2023/03/15 05:44:33;;;;;;;27.67;16.23;;;;;;;30.66;39.70;98655.44;5031589;28;20052;-62
2023/03/15 05:47:51;;;;;;;24.38;15.02;;;;;;;30.86;39.11;98670.34;5084201;27;20055;-65
2023/03/15 05:50:37;;;;;;;23.20;14.27;;;;;;;31.02;38.26;98668.75;5019663;28;20040;-68
2023/03/15 05:53:45;;;;;;;29.15;15.55;;;;;;;30.91;39.35;98670.16;5063278;28;20049;-64
2023/03/15 05:56:50;;;;;;;28.92;14.85;;;;;;;31.37;38.61;98674.88;5061872;28;20391;-64
2023/03/15 06:00:13;;;;;;;31.02;15.30;;;;;;;30.81;37.04;98665.03;4997970;28;20046;-63
2023/03/15 06:03:13;;;;;;;24.90;15.93;;;;;;;30.65;40.29;98666.69;5058633;28;20107;-64
2023/03/15 06:06:06;;;;;;;24.63;15.23;;;;;;;30.44;40.21;98663.81;5066725;28;20044;-63
2023/03/15 06:08:56;;;;;;;25.50;16.17;;;;;;;30.88;39.35;98662.63;5049657;28;20044;-64
2023/03/15 06:11:38;;;;;;;20.50;14.43;;;;;;;30.90;38.35;98662.28;5043121;28;20124;-65
2023/03/15 06:14:27;;;;;;;25.98;14.75;;;;;;;30.76;37.39;98662.47;5041888;28;21586;-63
2023/03/15 06:17:13;;;;;;;22.42;14.77;;;;;;;30.93;37.62;98656.19;5036276;28;20128;-63
2023/03/15 06:20:03;;;;;;;25.83;15.35;;;;;;;30.93;37.85;98662.47;5049793;28;20048;-64
2023/03/15 06:22:47;;;;;;;32.45;18.17;;;;;;;30.91;38.26;98661.16;5044657;28;20051;-68
2023/03/15 06:25:47;;;;;;;30.50;16.38;;;;;;;30.97;38.72;98657.94;5045297;28;20479;-64
2023/03/15 06:28:28;;;;;;;29.73;17.02;;;;;;;31.05;39.00;98653.59;5054911;28;20044;-64
2023/03/15 06:31:19;;;;;;;25.85;15.85;;;;;;;30.85;37.91;98646.06;5058791;28;20544;-62
2023/03/15 06:34:19;;;;;;;28.00;17.48;;;;;;;30.62;39.44;98651.75;5070676;28;20131;-65
2023/03/15 06:36:55;;;;;;;38.85;18.52;;;;;;;30.70;39.86;98641.91;5056430;28;20059;-61
2023/03/15 06:39:50;;;;;;;42.90;19.17;;;;;;;30.95;39.98;98637.50;5068457;28;20044;-63
2023/03/15 06:42:26;;;;;;;32.42;18.33;;;;;;;30.83;39.05;98629.97;5038125;28;20052;-62
2023/03/15 06:45:23;;;;;;;51.85;21.42;;;;;;;30.86;40.04;98634.78;5043957;28;20547;-63
2023/03/15 06:48:19;;;;;;;32.42;19.65;;;;;;;30.90;38.53;98630.25;5049780;28;20044;-64
2023/03/15 06:51:08;;;;;;;23.27;17.25;;;;;;;31.10;37.18;98621.38;5067095;28;20051;-62
2023/03/15 06:53:49;;;;;;;46.30;31.92;;;;;;;31.04;38.55;98614.47;5063406;28;20040;-68
2023/03/15 06:56:40;;;;;;;29.30;18.90;;;;;;;31.07;36.83;98605.59;5062519;28;20059;-66
2023/03/15 06:59:22;;;;;;;244.07;162.73;;;;;;;31.20;38.11;98607.31;5083381;28;20051;-66
2023/03/15 07:02:23;;;;;;;34.10;21.05;;;;;;;31.39;39.18;98603.34;5085292;28;20075;-66
2023/03/15 07:05:18;;;;;;;86.35;50.85;;;;;;;31.50;38.74;98607.31;5071598;28;20039;-68
2023/03/15 07:07:54;;;;;;;162.75;90.72;;;;;;;31.21;38.47;98602.63;5086349;28;20716;-65
2023/03/15 07:10:49;;;;;;;31.70;17.58;;;;;;;30.90;37.32;98594.72;5085575;28;20043;-67
2023/03/15 07:13:24;;;;;;;34.85;19.92;;;;;;;30.82;36.78;98594.75;5084260;28;20405;-68
2023/03/15 07:16:18;;;;;;;26.92;13.00;;;;;;;30.83;36.83;98586.22;5085647;28;20059;-67
2023/03/15 07:18:55;;;;;;;18.90;12.45;;;;;;;30.85;35.96;98588.63;5066217;28;20041;-67
2023/03/15 07:21:50;;;;;;;;;;;;;;;30.64;35.98;98589.34;5066296;28;20388;-67
2023/03/15 07:24:27;;;;;;;40.08;18.27;;;;;;;30.60;36.11;98579.38;5065889;28;19952;-68
2023/03/15 07:27:15;;;;;;;62.63;36.60;;;;;;;30.84;37.17;98579.63;5047479;28;20406;-68
2023/03/15 07:29:59;;;;;;;35.90;19.30;;;;;;;30.54;39.24;98569.72;5066467;28;20543;-69
2023/03/15 07:32:48;;;;;;;31.45;16.60;;;;;;;30.56;35.39;98570.22;5064682;28;20513;-71
2023/03/15 07:35:30;;;;;;;27.38;16.15;;;;;;;30.36;36.67;98563.47;5065675;28;20048;-67
2023/03/15 07:38:30;;;;;;;32.15;19.48;;;;;;;30.55;38.03;98555.75;5065772;28;20048;-68
2023/03/15 07:41:06;;;;;;;46.22;20.52;;;;;;;30.79;38.59;98555.19;5064570;28;20101;-68
2023/03/15 07:44:03;;;;;;;35.40;19.98;;;;;;;30.80;39.50;98553.25;5052986;28;20044;-69
2023/03/15 07:46:46;;;;;;;37.53;18.63;;;;;;;30.70;38.58;98538.81;4712780;28;9999814;-64
2023/03/15 07:49:41;;;;;;;22.90;17.13;;;;;;;30.82;38.08;98540.03;5062595;28;20698;-67
2023/03/15 07:52:16;;;;;;;29.23;16.85;;;;;;;30.54;38.70;98536.94;5064366;28;20044;-67
2023/03/15 07:55:12;;;;;;;32.28;18.00;;;;;;;30.63;39.93;98529.50;5048060;28;20055;-66
2023/03/15 07:57:47;;;;;;;37.28;18.02;;;;;;;30.50;39.33;98525.03;5052380;28;20355;-66
2023/03/15 08:00:41;;;;;;;34.03;19.03;;;;;;;30.54;40.10;98526.78;5065151;28;20133;-66
2023/03/15 08:03:17;;;;;;;28.98;16.95;;;;;;;30.47;39.19;98520.25;5065699;28;20425;-67
2023/03/15 08:06:05;;;;;;;25.83;17.30;;;;;;;30.66;39.34;98517.91;5065541;28;20396;-65
2023/03/15 08:08:47;;;;;;;29.58;16.80;;;;;;;30.68;39.00;98519.19;5048701;28;20048;-66
2023/03/15 08:11:42;;;;;;;22.70;15.73;;;;;;;30.63;38.88;98508.44;5059158;28;20101;-65
2023/03/15 08:14:19;;;;;;;22.60;14.68;;;;;;;30.87;38.37;98505.09;5060357;28;20432;-66
2023/03/15 08:17:15;;;;;;;24.92;15.57;;;;;;;30.90;36.71;98489.94;5065287;28;20044;-65
2023/03/15 08:19:50;;;;;;;25.60;13.35;;;;;;;30.98;35.83;98484.44;5064575;28;20048;-65
2023/03/15 08:22:38;;;;;;;18.58;14.48;;;;;;;30.86;36.92;98487.09;5061515;28;20052;-66
2023/03/15 08:25:30;;;;;;;24.13;12.63;;;;;;;30.70;35.35;98481.41;5061924;28;20044;-64
2023/03/15 08:28:11;;;;;;;21.30;10.57;;;;;;;30.53;33.19;98488.88;5061907;28;20049;-65
2023/03/15 08:31:00;;;;;;;25.75;12.02;;;;;;;30.66;33.66;98476.91;5056770;28;20036;-66
2023/03/15 08:33:55;;;;;;;20.50;13.07;;;;;;;30.62;36.83;98473.22;5064219;28;20049;-66
2023/03/15 08:36:31;;;;;;;24.63;13.65;;;;;;;30.64;38.08;98473.69;5064762;28;20045;-66
2023/03/15 08:39:25;;;;;;;28.08;15.35;;;;;;;30.38;38.07;98468.31;5049193;28;20045;-64
2023/03/15 08:42:01;;;;;;;24.33;15.32;;;;;;;30.33;38.27;98469.28;5044490;28;20052;-63
2023/03/15 08:44:58;;;;;;;27.40;15.80;;;;;;;30.40;39.44;98457.06;5052186;28;20076;-64
2023/03/15 08:47:34;;;;;;;25.95;16.25;;;;;;;30.21;39.62;98450.06;5023091;28;20037;-63
2023/03/15 08:50:31;;;;;;;;;;;;;;;30.18;39.47;98460.84;5027974;28;20064;-64
2023/03/15 08:53:07;;;;;;;27.83;15.80;;;;;;;30.14;39.37;98449.75;5036183;28;20282;-64
2023/03/15 08:55:56;;;;;;;28.33;15.90;;;;;;;29.91;38.95;98442.91;5036817;28;20790;-65
2023/03/15 08:58:37;;;;;;;24.45;14.50;;;;;;;30.04;39.41;98436.47;5039304;28;20088;-65
2023/03/15 09:01:33;;;;;;;23.80;15.52;;;;;;;29.93;38.71;98431.66;5040152;28;20048;-64
2023/03/15 09:04:09;;;;;;;22.15;14.48;;;;;;;30.08;39.37;98417.47;5037677;28;20049;-64
2023/03/15 09:07:05;;;;;;;;;;;;;;;30.25;39.25;98428.34;5036164;28;20049;-65
2023/03/15 09:09:40;;;;;;;26.00;13.15;;;;;;;30.19;37.10;98418.72;5035898;28;19920;-62
2023/03/15 09:12:35;;;;;;;23.48;13.73;;;;;;;30.18;37.34;98420.63;5038399;28;20037;-64
2023/03/15 09:15:30;;;;;;;36.10;15.55;;;;;;;30.10;37.93;98405.09;5031944;28;20052;-65
2023/03/15 09:18:06;;;;;;;23.83;13.50;;;;;;;30.10;38.40;98407.81;5020223;28;20056;-64
2023/03/15 09:20:54;;;;;;;23.15;13.23;;;;;;;30.07;37.30;98403.00;5022088;28;20060;-66
2023/03/15 09:23:37;;;;;;;31.17;15.70;;;;;;;30.32;38.82;98399.38;5041234;28;20148;-64
2023/03/15 09:26:32;;;;;;;23.38;15.73;;;;;;;30.28;38.53;98390.22;5035107;28;20507;-65
2023/03/15 09:29:10;;;;;;;26.55;15.35;;;;;;;30.12;36.45;98389.19;5031737;28;20380;-63
2023/03/15 09:32:00;;;;;;;29.55;15.80;;;;;;;30.15;39.13;98390.44;5043546;28;20049;-64
2023/03/15 09:34:50;;;;;;;31.13;16.42;;;;;;;30.18;39.22;98389.81;5038645;28;20071;-65
2023/03/15 09:37:31;;;;;;;23.52;15.23;;;;;;;30.24;39.42;98377.53;5015113;28;20042;-64
2023/03/15 09:40:29;;;;;;;24.40;15.80;;;;;;;30.01;40.25;98374.25;5023043;28;20053;-63
2023/03/15 09:43:12;;;;;;;30.05;15.55;;;;;;;29.98;39.74;98374.13;5022634;28;20046;-65
2023/03/15 09:46:04;;;;;;;22.73;15.13;;;;;;;30.08;40.66;98373.78;5043091;28;20396;-64
2023/03/15 09:49:47;;;;;;;32.33;16.70;;;;;;;30.03;40.30;98368.47;5043616;28;20060;-65
2023/03/15 09:52:43;;;;;;;33.33;15.70;;;;;;;30.15;41.24;98363.94;5042535;28;20049;-65
2023/03/15 09:55:32;;;;;;;28.15;16.13;;;;;;;30.17;41.34;98358.94;5041811;28;20059;-65
2023/03/15 09:58:33;;;;;;;28.33;15.55;;;;;;;30.12;40.69;98359.13;5043141;28;20452;-65
2023/03/15 10:01:23;;;;;;;25.85;16.52;;;;;;;30.05;39.85;98352.59;5043679;28;20045;-64
2023/03/15 10:04:08;;;;;;;;;;;;;;;30.12;40.22;98356.41;5044517;28;20136;-64
2023/03/15 10:07:01;;;;;;;31.77;15.85;;;;;;;30.00;40.57;98352.75;5042901;28;19990;-65
2023/03/15 10:09:45;;;;;;;39.17;18.38;;;;;;;29.89;40.60;98346.84;5026648;28;20044;-64
2023/03/15 10:12:42;;;;;;;29.15;16.67;;;;;;;29.98;41.82;98338.63;5041428;28;20650;-67
2023/03/15 10:15:44;;;;;;;27.00;15.15;;;;;;;30.03;39.42;98338.44;5040929;28;20053;-65
2023/03/15 10:19:02;;;;;;;19.40;13.50;;;;;;;30.04;38.44;98340.06;5042898;28;20049;-66
2023/03/15 10:22:11;;;;;;;26.88;13.70;;;;;;;29.95;38.40;98340.09;5023617;28;20499;-65
2023/03/15 10:25:15;;;;;;;22.50;12.52;;;;;;;29.85;38.24;98343.13;5043054;28;20052;-66
2023/03/15 10:28:28;;;;;;;23.45;12.88;;;;;;;29.80;38.83;98335.13;5042645;28;20045;-65
2023/03/15 10:31:21;;;;;;;23.58;12.25;;;;;;;29.71;38.16;98326.16;5041709;28;20493;-64
2023/03/15 10:34:31;;;;;;;23.00;12.95;;;;;;;29.76;38.44;98321.34;5026701;28;20048;-67
2023/03/15 10:37:08;;;;;;;18.58;12.73;;;;;;;29.80;37.24;98325.00;5043591;28;20523;-65
2023/03/15 10:40:09;;;;;;;21.67;11.55;;;;;;;29.91;37.26;98314.56;5029809;28;20143;-65
2023/03/15 10:42:46;;;;;;;15.63;11.20;;;;;;;30.03;35.27;98314.66;5034500;28;20057;-68
2023/03/15 10:45:41;;;;;;;18.70;11.48;;;;;;;30.01;34.56;98316.91;5041288;28;20088;-68
2023/03/15 10:48:30;;;;;;;23.42;11.38;;;;;;;30.03;35.50;98311.94;5050685;28;20040;-67
2023/03/15 10:51:34;;;;;;;17.05;10.57;;;;;;;29.90;35.40;98307.50;5063107;28;20048;-68
2023/03/15 10:54:17;;;;;;;19.02;10.93;;;;;;;29.89;35.45;98303.97;5067443;28;20051;-68
2023/03/15 10:57:21;;;;;;;16.17;10.02;;;;;;;29.82;34.49;98300.13;5061362;28;20071;-65
2023/03/15 11:00:16;;;;;;;22.95;10.57;;;;;;;29.78;35.37;98299.16;5058598;28;20130;-66
2023/03/15 11:03:20;;;;;;;18.88;12.50;;;;;;;29.67;38.58;98287.00;5064341;28;20869;-66
2023/03/15 11:05:58;;;;;;;26.95;12.43;;;;;;;29.65;39.31;98294.72;5043480;28;20056;-66
2023/03/15 11:08:46;;;;;;;25.85;13.55;;;;;;;29.58;39.25;98295.22;5062224;28;20048;-65
2023/03/15 11:11:35;;;;;;;27.73;12.52;;;;;;;29.54;38.03;98296.19;5054235;28;20083;-67
2023/03/15 11:14:39;;;;;;;26.52;12.60;;;;;;;29.48;39.62;98292.03;5058890;28;20861;-66
2023/03/15 11:17:29;;;;;;;28.98;12.30;;;;;;;29.42;39.11;98294.97;5066872;28;20419;-68
2023/03/15 11:20:35;;;;;;;22.40;12.75;;;;;;;29.40;40.62;98294.47;5064916;28;20387;-67
2023/03/15 11:23:19;;;;;;;20.45;12.68;;;;;;;29.34;40.60;98287.56;5063376;28;20048;-66
2023/03/15 11:26:24;;;;;;;23.50;12.68;;;;;;;29.25;39.23;98286.78;5065013;28;20052;-67
2023/03/15 11:29:26;;;;;;;27.92;12.82;;;;;;;29.16;39.84;98290.66;5059855;28;20059;-64
2023/03/15 11:32:31;;;;;;;24.60;12.52;;;;;;;29.16;39.35;98283.28;5061245;28;20446;-64
2023/03/15 11:35:43;;;;;;;25.33;12.23;;;;;;;29.04;39.80;98288.56;5066485;28;20107;-65
2023/03/15 11:38:36;;;;;;;22.27;12.63;;;;;;;28.99;40.74;98284.09;5060218;28;20051;-68
2023/03/15 11:41:28;;;;;;;18.85;12.88;;;;;;;28.86;41.71;98292.44;5058416;28;20053;-66
2023/03/15 11:44:33;;;;;;;22.55;13.93;;;;;;;28.80;42.07;98288.28;4709555;28;10001002;-67
2023/03/15 11:47:40;;;;;;;20.60;12.88;;;;;;;28.72;42.91;98287.16;5063206;28;20048;-67
2023/03/15 11:50:34;;;;;;;26.50;14.43;;;;;;;28.66;41.99;98291.13;5057272;28;20041;-68
2023/03/15 11:53:16;;;;;;;24.67;14.15;;;;;;;28.65;43.44;98288.72;5063513;28;20052;-66
2023/03/15 11:56:24;;;;;;;18.50;14.15;;;;;;;28.59;44.21;98293.53;5028482;28;20044;-63
2023/03/15 11:59:15;;;;;;;22.30;14.52;;;;;;;28.52;44.33;98290.47;5063486;28;20044;-66
2023/03/15 12:02:12;;;;;;;30.42;15.63;;;;;;;28.48;43.33;98284.06;5063819;28;20049;-69
2023/03/15 12:04:58;;;;;;;23.52;14.35;;;;;;;28.43;44.56;98290.47;5046273;28;20048;-67
2023/03/15 12:08:15;;;;;;;23.37;15.43;;;;;;;28.38;43.97;98284.38;5050635;28;20048;-66
2023/03/15 12:10:57;;;;;;;32.70;14.20;;;;;;;28.34;43.98;98286.94;5056161;28;20036;-64
2023/03/15 12:14:02;;;;;;;24.45;14.88;;;;;;;28.30;44.67;98294.16;5064013;28;20144;-66
2023/03/15 12:16:47;;;;;;;34.15;15.13;;;;;;;28.23;43.78;98296.53;5058406;28;20097;-63
2023/03/15 12:19:42;;;;;;;23.48;14.05;;;;;;;28.18;44.17;98288.53;5060224;28;20106;-67
2023/03/15 12:22:18;;;;;;;24.42;13.60;;;;;;;28.11;41.32;98285.44;5045445;28;20040;-64
2023/03/15 12:25:37;;;;;;;30.63;14.45;;;;;;;28.07;41.57;98281.72;5044374;28;20048;-65
2023/03/15 12:28:47;;;;;;;29.88;12.70;;;;;;;28.00;40.84;98284.13;5039000;28;20126;-65
2023/03/15 12:32:09;;;;;;;27.05;13.85;;;;;;;27.96;41.61;98289.41;5025588;28;20044;-65
2023/03/15 12:34:51;;;;;;;23.75;11.27;;;;;;;27.93;40.13;98292.72;5044348;28;20141;-66
2023/03/15 12:37:52;;;;;;;32.53;12.20;;;;;;;27.89;40.82;98299.91;5053968;28;20051;-66
2023/03/15 12:40:59;;;;;;;24.23;12.77;;;;;;;27.86;41.02;98299.75;5062955;28;20158;-67
2023/03/15 12:43:56;;;;;;;23.33;12.73;;;;;;;27.79;41.90;98305.66;5008897;28;20722;-66
2023/03/15 12:46:44;;;;;;;26.15;12.10;;;;;;;27.77;43.07;98309.81;5061284;28;20048;-67
2023/03/15 12:49:43;;;;;;;25.65;12.52;;;;;;;27.75;43.23;98307.38;5044412;28;20049;-65
2023/03/15 12:52:19;;;;;;;18.63;11.90;;;;;;;27.66;44.15;98312.00;5037632;28;20053;-64
2023/03/15 12:55:23;;;;;;;24.98;12.32;;;;;;;27.58;45.35;98312.75;5041844;28;20049;-65
2023/03/15 12:58:03;;;;;;;27.65;13.15;;;;;;;27.57;46.91;98320.09;5041905;28;20115;-66
2023/03/15 13:00:59;;;;;;;36.40;14.07;;;;;;;27.41;45.92;98318.88;5043707;28;20641;-65
2023/03/15 13:03:35;;;;;;;25.00;13.95;;;;;;;27.38;45.29;98322.22;5043809;28;20049;-66
2023/03/15 13:07:06;;;;;;;34.83;14.30;;;;;;;27.31;46.14;98321.84;5031497;28;20052;-64
2023/03/15 13:10:08;;;;;;;25.67;13.57;;;;;;;27.22;46.00;98323.72;5041973;28;20425;-62
2023/03/15 13:13:13;;;;;;;33.85;15.23;;;;;;;27.24;46.49;98314.16;5041014;28;20041;-65